Hebron, New Hampshire
Current Conditions -  °F | °C
As of 5:55 PM on Thursday 23 Oct 2014 (Local Time) from K1P1 Reporting Station
Overcast Overcast  
Wind Chill:   Ceiling: 2900
Heat Index: 10°   Visibility: 10mi
Dew Point: 10°   Wind: 5mph
Humidity: 100%   Direction: 280°W
Pressure: 29.76"   Gusts: NA
Location:  43.69°N, 71.81°W
Report Text: K1P1 232155Z AUTO 28004KT 10SM OVC029 10/10 A2976 RMK AO2 P0002 T00970097
Loading
Personal Weather Stations






























Interactive Weather Map
Tropical Storm Tracking
New forecast layout! Learn more

10-Day Weather Forecast

Advertisements
Track Severe Weather on mobile